createdAt,value
2019-05-23T00:00:51.145Z,101350.77
2019-05-23T00:03:23.035Z,101355.28
2019-05-23T00:06:01.482Z,101351.16
2019-05-23T00:08:32.376Z,101352.11
2019-05-23T00:11:22.050Z,101359.93
2019-05-23T00:14:01.260Z,101346.76
2019-05-23T00:16:32.243Z,101343.23
2019-05-23T00:19:05.949Z,101342.48
2019-05-23T00:21:37.369Z,101343.72
2019-05-23T00:24:08.443Z,101346.77
2019-05-23T00:26:39.472Z,101354.31
2019-05-23T00:29:11.142Z,101352.47
2019-05-23T00:31:58.890Z,101350.51
2019-05-23T00:34:30.328Z,101350.38
2019-05-23T00:37:00.031Z,101350.38
2019-05-23T00:39:31.842Z,101352.56
2019-05-23T00:42:01.444Z,101352.56
2019-05-23T00:44:32.269Z,101350.23
2019-05-23T00:47:02.277Z,101344.29
2019-05-23T00:49:32.413Z,101327.33
2019-05-23T00:52:01.965Z,101320.89
2019-05-23T00:54:32.269Z,101328.53
2019-05-23T00:57:02.450Z,101321.97
2019-05-23T00:59:33.297Z,101316.47
2019-05-23T01:02:02.977Z,101312.32
2019-05-23T01:04:32.436Z,101305.26
2019-05-23T01:07:01.925Z,101300.02
2019-05-23T01:09:32.532Z,101299.13
2019-05-23T01:12:02.281Z,101296.08
2019-05-23T01:14:32.519Z,101291.43
2019-05-23T01:17:02.028Z,101290.93
2019-05-23T01:19:32.377Z,101286.41
2019-05-23T01:22:08.033Z,101281.77
2019-05-23T01:24:43.593Z,101282.11
2019-05-23T01:27:13.768Z,101282.81
2019-05-23T01:29:50.314Z,101283.75
2019-05-23T01:32:38.121Z,101286.42
2019-05-23T01:35:12.738Z,101288.98
2019-05-23T01:37:44.064Z,101296.72
2019-05-23T01:40:15.844Z,101295.52
2019-05-23T01:42:46.248Z,101293.36
2019-05-23T01:45:17.968Z,101291.77
2019-05-23T01:47:50.408Z,101278.17
2019-05-23T01:50:25.626Z,101285.59
2019-05-23T01:52:55.870Z,101283.89
2019-05-23T01:55:25.726Z,101279.27
2019-05-23T01:57:56.003Z,101285.35
2019-05-23T02:00:30.432Z,101283.66
2019-05-23T02:03:01.126Z,101284.86
2019-05-23T02:05:30.893Z,101289.34
2019-05-23T02:08:00.944Z,101286.30
2019-05-23T02:10:31.102Z,101283.23
2019-05-23T02:13:01.271Z,101288.71
2019-05-23T02:15:31.690Z,101286.02
2019-05-23T02:18:01.542Z,101290.16
2019-05-23T02:20:32.098Z,101280.39
2019-05-23T02:23:03.123Z,101276.50
2019-05-23T02:25:32.653Z,101269.58
2019-05-23T02:28:02.219Z,101270.86
2019-05-23T02:30:34.635Z,101267.80
2019-05-23T02:33:03.920Z,101268.50
2019-05-23T02:35:33.317Z,101269.47
2019-05-23T02:38:31.297Z,101266.08
2019-05-23T02:41:08.655Z,101256.45
2019-05-23T02:43:39.902Z,101264.92
2019-05-23T02:46:19.157Z,101258.81
2019-05-23T02:48:51.337Z,101253.59
2019-05-23T02:51:26.288Z,101258.42
2019-05-23T02:53:57.130Z,101252.72
2019-05-23T02:56:28.645Z,101257.06
2019-05-23T02:59:39.322Z,101249.16
2019-05-23T03:02:54.756Z,101261.28
2019-05-23T03:05:28.100Z,101258.17
2019-05-23T03:08:00.668Z,101252.40
2019-05-23T03:10:49.989Z,101248.82
2019-05-23T03:13:21.616Z,101253.23
2019-05-23T03:15:51.918Z,101246.18
2019-05-23T03:18:23.587Z,101247.16
2019-05-23T03:20:54.412Z,101241.56
2019-05-23T03:23:24.304Z,101237.20
2019-05-23T03:26:35.663Z,101240.84
2019-05-23T03:29:06.943Z,101247.52
2019-05-23T03:31:46.337Z,101245.58
2019-05-23T03:34:17.906Z,101240.38
2019-05-23T03:36:47.535Z,101233.13
2019-05-23T03:39:17.186Z,101238.13
2019-05-23T03:41:48.131Z,101226.11
2019-05-23T03:44:19.396Z,101231.81
2019-05-23T03:46:51.257Z,101233.64
2019-05-23T03:49:20.910Z,101220.48
2019-05-23T03:51:50.372Z,101220.25
2019-05-23T03:54:21.159Z,101215.48
2019-05-23T03:56:50.705Z,101226.05
2019-05-23T03:59:22.895Z,101228.96
2019-05-23T04:01:54.679Z,101223.02
2019-05-23T04:04:26.354Z,101227.02
2019-05-23T04:06:57.457Z,101230.30
2019-05-23T04:09:28.003Z,101229.33
2019-05-23T04:11:58.416Z,101236.01
2019-05-23T04:14:28.331Z,101232.85
2019-05-23T04:16:58.512Z,101232.97
2019-05-23T04:19:28.118Z,101226.30
2019-05-23T04:21:58.256Z,101232.82
2019-05-23T04:24:29.973Z,101241.05
2019-05-23T04:26:59.410Z,101236.64
2019-05-23T04:29:28.949Z,101235.64
2019-05-23T04:32:08.175Z,101228.71
2019-05-23T04:34:29.696Z,101235.64
2019-05-23T04:36:59.137Z,101232.36
2019-05-23T04:39:29.298Z,101228.14
2019-05-23T04:41:58.680Z,101222.92
2019-05-23T04:44:28.113Z,101224.10
2019-05-23T04:46:57.543Z,101219.09
2019-05-23T04:49:27.290Z,101221.52
2019-05-23T04:51:57.858Z,101213.22
2019-05-23T04:54:28.338Z,101212.25
2019-05-23T04:56:57.757Z,101208.94
2019-05-23T04:59:27.217Z,101206.72
2019-05-23T05:01:57.870Z,101207.81
2019-05-23T05:04:27.547Z,101209.15
2019-05-23T05:06:57.121Z,101204.17
2019-05-23T05:09:29.713Z,101205.88
2019-05-23T05:12:00.135Z,101205.30
2019-05-23T05:14:32.599Z,101208.33
2019-05-23T05:17:02.011Z,101217.08
2019-05-23T05:19:32.672Z,101209.83
2019-05-23T05:22:02.192Z,101208.73
2019-05-23T05:24:31.632Z,101202.21
2019-05-23T05:27:01.196Z,101198.36
2019-05-23T05:29:30.580Z,101194.86
2019-05-23T05:32:03.628Z,101193.92
2019-05-23T05:34:31.843Z,101193.86
2019-05-23T05:37:02.010Z,101195.07
2019-05-23T05:39:31.611Z,101187.91
2019-05-23T05:42:01.614Z,101192.28
2019-05-23T05:44:32.080Z,101195.70
2019-05-23T05:47:01.908Z,101197.65
2019-05-23T05:49:31.289Z,101205.33
2019-05-23T05:52:00.949Z,101205.63
2019-05-23T05:54:30.417Z,101200.45
2019-05-23T05:56:59.983Z,101204.40
2019-05-23T05:59:29.920Z,101204.43
2019-05-23T06:01:59.670Z,101207.14
2019-05-23T06:04:29.154Z,101213.13
2019-05-23T06:07:13.603Z,101213.67
2019-05-23T06:09:43.436Z,101215.51
2019-05-23T06:12:14.228Z,101214.93
2019-05-23T06:14:46.496Z,101206.67
2019-05-23T06:17:16.322Z,101206.19
2019-05-23T06:19:46.863Z,101209.61
2019-05-23T06:22:18.417Z,101209.25
2019-05-23T06:24:53.752Z,101208.25
2019-05-23T06:27:22.664Z,101207.28
2019-05-23T06:29:52.157Z,101197.29
2019-05-23T06:32:24.026Z,101200.06
2019-05-23T06:34:56.062Z,101200.17
2019-05-23T06:37:26.892Z,101204.39
2019-05-23T06:39:57.038Z,101210.42
2019-05-23T06:42:26.689Z,101207.72
2019-05-23T06:44:57.234Z,101208.99
2019-05-23T06:47:27.761Z,101208.19
2019-05-23T06:49:57.321Z,101210.41
2019-05-23T06:52:27.248Z,101214.59
2019-05-23T06:54:59.684Z,101217.30
2019-05-23T06:57:27.953Z,101214.73
2019-05-23T06:59:58.651Z,101217.30
2019-05-23T07:02:31.832Z,101224.79
2019-05-23T07:05:01.394Z,101228.03
2019-05-23T07:07:32.848Z,101223.30
2019-05-23T07:10:05.051Z,101229.52
2019-05-23T07:12:34.617Z,101226.37
2019-05-23T07:15:04.587Z,101227.71
2019-05-23T07:17:34.143Z,101222.93
2019-05-23T07:20:04.614Z,101229.63
2019-05-23T07:22:34.097Z,101229.83
2019-05-23T07:25:05.006Z,101227.67
2019-05-23T07:27:35.078Z,101223.60
2019-05-23T07:30:06.703Z,101227.33
2019-05-23T07:32:36.187Z,101212.67
2019-05-23T07:35:06.781Z,101217.14
2019-05-23T07:37:36.175Z,101223.25
2019-05-23T07:40:06.436Z,101213.48
2019-05-23T07:42:35.748Z,101220.89
2019-05-23T07:45:07.125Z,101226.64
2019-05-23T07:47:39.884Z,101223.11
2019-05-23T07:50:07.751Z,101225.59
2019-05-23T07:52:37.163Z,101225.72
2019-05-23T07:55:12.276Z,101224.81
2019-05-23T07:57:41.724Z,101230.83
2019-05-23T08:00:19.786Z,101236.89
2019-05-23T08:09:00.863Z,101231.03
2019-05-23T08:11:30.255Z,101234.31
2019-05-23T08:14:00.327Z,101226.12
2019-05-23T08:16:33.676Z,101222.41
2019-05-23T08:19:03.621Z,101225.98
2019-05-23T08:21:33.482Z,101226.86
2019-05-23T08:24:03.346Z,101230.92
2019-05-23T08:26:34.178Z,101233.31
2019-05-23T08:29:24.663Z,101234.16
2019-05-23T08:31:40.812Z,101237.05
2019-05-23T08:34:11.247Z,101236.03
2019-05-23T08:36:41.333Z,101240.44
2019-05-23T08:39:14.747Z,101238.75
2019-05-23T08:44:12.781Z,101238.23
2019-05-23T08:49:14.854Z,101239.41
2019-05-23T08:52:02.895Z,101244.14
2019-05-23T08:54:33.836Z,101239.41
2019-05-23T09:11:47.033Z,101242.86
2019-05-23T09:14:16.837Z,101249.81
2019-05-23T09:16:47.012Z,101250.16
2019-05-23T09:19:18.729Z,101251.72
2019-05-23T09:21:49.198Z,101248.81
2019-05-23T09:24:18.742Z,101250.33
2019-05-23T09:26:49.339Z,101244.42
2019-05-23T09:29:25.015Z,101246.30
2019-05-23T09:31:54.473Z,101247.02
2019-05-23T09:34:24.797Z,101251.22
2019-05-23T09:37:00.922Z,101249.55
2019-05-23T09:39:31.208Z,101252.56
2019-05-23T09:42:00.760Z,101249.88
2019-05-23T09:44:30.464Z,101244.13
2019-05-23T09:47:02.345Z,101245.98
2019-05-23T09:49:37.006Z,101248.52
2019-05-23T09:52:09.443Z,101248.70
2019-05-23T09:54:39.664Z,101248.36
2019-05-23T09:57:10.433Z,101240.58
2019-05-23T09:59:40.510Z,101246.50
2019-05-23T10:02:13.019Z,101238.38
2019-05-23T10:04:42.725Z,101236.87
2019-05-23T10:07:12.845Z,101245.02
2019-05-23T10:09:42.374Z,101247.36
2019-05-23T10:12:11.852Z,101239.73
2019-05-23T10:14:41.455Z,101246.84
2019-05-23T10:17:16.349Z,101248.53
2019-05-23T10:19:46.017Z,101254.80
2019-05-23T10:22:20.626Z,101242.27
2019-05-23T10:24:57.611Z,101243.14
2019-05-23T10:27:29.978Z,101243.66
2019-05-23T10:29:59.623Z,101239.08
2019-05-23T10:32:31.194Z,101238.70
2019-05-23T10:35:00.972Z,101242.12
2019-05-23T10:37:30.450Z,101238.06
2019-05-23T10:39:59.826Z,101241.61
2019-05-23T10:42:29.711Z,101234.33
2019-05-23T10:53:38.532Z,101237.01
2019-05-23T10:56:12.676Z,101228.20
2019-05-23T10:58:46.743Z,101234.30
2019-05-23T11:01:21.582Z,101230.08
2019-05-23T11:03:58.808Z,101230.94
2019-05-23T11:06:40.997Z,101223.47
2019-05-23T11:09:11.611Z,101219.76
2019-05-23T11:11:42.933Z,101212.45
2019-05-23T11:14:27.212Z,101218.72
2019-05-23T11:16:57.133Z,101219.91
2019-05-23T11:19:26.679Z,101222.63
2019-05-23T11:22:00.051Z,101225.52
2019-05-23T11:24:30.200Z,101229.08
2019-05-23T11:26:59.895Z,101221.45
2019-05-23T11:29:29.854Z,101217.57
2019-05-23T11:32:02.729Z,101220.42
2019-05-23T11:34:32.428Z,101224.13
2019-05-23T11:37:02.012Z,101223.59
2019-05-23T11:39:31.620Z,101229.03
2019-05-23T11:42:01.317Z,101230.58
2019-05-23T11:44:34.904Z,101229.59
2019-05-23T11:47:11.220Z,101222.98
2019-05-23T11:49:42.543Z,101223.80
2019-05-23T11:52:13.436Z,101223.14
2019-05-23T11:54:43.642Z,101231.61
2019-05-23T11:57:15.121Z,101232.41
2019-05-23T12:02:39.748Z,101243.37
2019-05-23T12:05:18.629Z,101233.36
2019-05-23T12:07:48.199Z,101243.67
2019-05-23T12:10:20.758Z,101233.62
2019-05-23T12:12:50.351Z,101230.37
2019-05-23T12:15:28.952Z,101235.25
2019-05-23T12:17:58.770Z,101232.43
2019-05-23T12:20:28.415Z,101231.22
2019-05-23T12:22:59.399Z,101230.77
2019-05-23T12:25:34.608Z,101232.12
2019-05-23T12:28:06.683Z,101239.23
2019-05-23T12:30:36.935Z,101238.27
2019-05-23T12:33:09.681Z,101247.83
2019-05-23T12:35:39.287Z,101247.17
2019-05-23T12:38:09.530Z,101245.30
2019-05-23T12:40:39.016Z,101238.53
2019-05-23T12:43:08.382Z,101238.27
2019-05-23T12:45:37.663Z,101243.56
2019-05-23T12:48:17.545Z,101244.72
2019-05-23T12:50:46.995Z,101241.68
2019-05-23T12:53:17.938Z,101237.42
2019-05-23T12:55:47.555Z,101231.62
2019-05-23T12:58:18.941Z,101235.55
2019-05-23T13:00:54.122Z,101229.78
2019-05-23T13:03:26.557Z,101230.94
2019-05-23T13:05:56.104Z,101234.16
2019-05-23T13:08:25.599Z,101231.27
2019-05-23T13:10:55.097Z,101236.52
2019-05-23T13:13:24.510Z,101226.11
2019-05-23T13:15:56.638Z,101223.98
2019-05-23T13:18:28.618Z,101236.42
2019-05-23T13:20:59.692Z,101231.53
2019-05-23T13:23:29.741Z,101238.30
2019-05-23T13:25:59.289Z,101232.91
2019-05-23T13:28:29.874Z,101223.42
2019-05-23T13:31:00.268Z,101221.41
2019-05-23T13:33:30.043Z,101227.16
2019-05-23T13:35:59.590Z,101226.48
2019-05-23T13:38:29.269Z,101229.28
2019-05-23T13:41:00.286Z,101234.36
2019-05-23T13:43:30.165Z,101235.45
2019-05-23T13:46:11.606Z,101228.32
2019-05-23T13:48:40.998Z,101236.61
2019-05-23T13:51:10.358Z,101237.45
2019-05-23T13:53:39.722Z,101227.19
2019-05-23T13:56:09.332Z,101229.98
2019-05-23T13:58:38.722Z,101233.58
2019-05-23T14:01:12.362Z,101238.91
2019-05-23T14:03:42.805Z,101241.13
2019-05-23T14:06:12.487Z,101233.61
2019-05-23T14:08:42.330Z,101241.01
2019-05-23T14:11:14.632Z,101241.77
2019-05-23T14:13:45.598Z,101242.48
2019-05-23T14:16:15.428Z,101235.18
2019-05-23T14:18:44.809Z,101235.18
2019-05-23T14:21:14.640Z,101244.12
2019-05-23T14:23:44.027Z,101241.81
2019-05-23T14:26:16.700Z,101244.56
2019-05-23T14:28:46.201Z,101256.67
2019-05-23T14:31:19.239Z,101250.80
2019-05-23T14:34:11.393Z,101260.50
2019-05-23T14:37:02.603Z,101253.63
2019-05-23T14:39:42.225Z,101257.01
2019-05-23T14:42:46.077Z,101245.81
2019-05-23T14:45:47.369Z,101242.46
2019-05-23T14:48:24.410Z,101252.59
2019-05-23T14:54:03.117Z,101257.45
2019-05-23T14:56:34.124Z,101245.80
2019-05-23T14:59:07.713Z,101257.39
2019-05-23T15:01:37.449Z,101254.66
2019-05-23T15:04:07.215Z,101249.75
2019-05-23T15:06:45.475Z,101257.56
2019-05-23T15:09:21.259Z,101251.06
2019-05-23T15:11:49.960Z,101256.15
2019-05-23T15:14:26.730Z,101261.02
2019-05-23T15:16:59.319Z,101272.05
2019-05-23T15:19:41.775Z,101268.73
2019-05-23T15:22:00.228Z,101260.63
2019-05-23T15:27:34.300Z,101268.81
2019-05-23T15:33:03.133Z,101264.49
2019-05-23T15:35:40.375Z,101277.74
2019-05-23T15:41:37.632Z,101276.63
2019-05-23T15:44:31.084Z,101283.42
2019-05-23T15:47:00.562Z,101287.44
2019-05-23T15:52:51.696Z,101281.27
2019-05-23T15:56:16.806Z,101279.02
2019-05-23T16:01:59.469Z,101276.77
2019-05-23T16:04:33.718Z,101278.88
2019-05-23T16:07:04.008Z,101265.83
2019-05-23T16:09:33.605Z,101272.61
2019-05-23T16:12:03.641Z,101272.09
2019-05-23T16:14:33.193Z,101286.53
2019-05-23T16:17:03.309Z,101277.48
2019-05-23T16:19:34.805Z,101281.53
2019-05-23T16:22:12.129Z,101282.16
2019-05-23T16:24:42.032Z,101294.22
2019-05-23T16:27:21.923Z,101287.91
2019-05-23T16:29:53.785Z,101303.94
2019-05-23T16:32:27.736Z,101296.75
2019-05-23T16:35:08.108Z,101293.19
2019-05-23T16:43:18.442Z,101299.92
2019-05-23T16:45:48.062Z,101303.59
2019-05-23T16:48:19.539Z,101300.52
2019-05-23T16:51:08.159Z,101299.14
2019-05-23T16:53:59.182Z,101302.67
2019-05-23T16:56:49.410Z,101293.47
2019-05-23T17:02:36.404Z,101320.62
2019-05-23T17:05:45.533Z,101303.39
2019-05-23T17:08:29.998Z,101304.20
2019-05-23T17:17:49.070Z,101286.17
2019-05-23T17:27:10.134Z,101285.73
2019-05-23T17:29:56.483Z,101282.66
2019-05-23T17:32:39.113Z,101288.94
2019-05-23T17:35:48.452Z,101282.31
2019-05-23T17:38:25.348Z,101284.72
2019-05-23T17:41:10.492Z,101283.91
2019-05-23T17:44:03.586Z,101284.63
2019-05-23T17:46:21.151Z,101288.52
2019-05-23T17:51:42.537Z,101288.52
2019-05-23T17:54:16.647Z,101286.84
2019-05-23T17:56:46.418Z,101292.25
2019-05-23T17:59:15.942Z,101284.64
2019-05-23T18:01:53.387Z,101289.16
2019-05-23T18:04:23.023Z,101301.80
2019-05-23T18:06:52.857Z,101296.43
2019-05-23T18:09:25.820Z,101299.64
2019-05-23T18:12:00.119Z,101300.54
2019-05-23T18:14:54.242Z,101302.73
2019-05-23T18:17:41.277Z,101302.41
2019-05-23T18:20:14.334Z,101294.31
2019-05-23T18:22:44.582Z,101299.75
2019-05-23T18:25:14.754Z,101297.98
2019-05-23T18:27:45.968Z,101299.58
2019-05-23T18:30:35.924Z,101303.15
2019-05-23T18:33:10.710Z,101296.09
2019-05-23T18:35:47.035Z,101303.78
2019-05-23T18:38:16.913Z,101309.23
2019-05-23T18:41:01.685Z,101308.67
2019-05-23T18:43:21.194Z,101312.27
2019-05-23T18:45:52.724Z,101310.83
2019-05-23T18:48:22.283Z,101306.72
2019-05-23T18:50:55.468Z,101298.58
2019-05-23T18:53:28.127Z,101299.13
2019-05-23T18:55:57.915Z,101307.61
2019-05-23T18:58:27.462Z,101306.23
2019-05-23T19:01:20.743Z,101295.97
2019-05-23T19:03:50.314Z,101299.25
2019-05-23T19:06:20.676Z,101300.11
2019-05-23T19:08:57.103Z,101301.45
2019-05-23T19:11:26.667Z,101309.02
2019-05-23T19:13:56.089Z,101302.45
2019-05-23T19:16:26.615Z,101308.17
2019-05-23T19:18:59.005Z,101308.14
2019-05-23T19:21:31.427Z,101309.77
2019-05-23T19:24:00.921Z,101315.59
2019-05-23T19:26:30.931Z,101316.83
2019-05-23T19:29:00.572Z,101320.96
2019-05-23T19:31:30.242Z,101321.19
2019-05-23T19:34:00.180Z,101323.02
2019-05-23T19:36:30.545Z,101322.56
2019-05-23T19:39:00.234Z,101320.03
2019-05-23T19:41:37.402Z,101322.44
2019-05-23T19:44:01.036Z,101317.59
2019-05-23T19:46:30.400Z,101315.08
2019-05-23T19:48:59.794Z,101320.42
2019-05-23T19:51:29.177Z,101319.64
2019-05-23T19:54:00.406Z,101319.70
2019-05-23T19:56:30.468Z,101324.20
2019-05-23T19:58:59.917Z,101329.22
2019-05-23T20:01:32.518Z,101331.02
2019-05-23T20:04:01.855Z,101326.88
2019-05-23T20:06:32.428Z,101333.07
2019-05-23T20:09:03.409Z,101331.16
2019-05-23T20:11:32.722Z,101333.17
2019-05-23T20:14:02.108Z,101340.53
2019-05-23T20:16:31.696Z,101344.30
2019-05-23T20:19:01.020Z,101348.00
2019-05-23T20:21:31.000Z,101352.71
2019-05-23T20:24:00.431Z,101357.70
2019-05-23T20:26:31.549Z,101359.34
2019-05-23T20:29:03.328Z,101356.58
2019-05-23T20:31:32.094Z,101361.41
2019-05-23T20:34:01.821Z,101358.17
2019-05-23T20:36:31.290Z,101355.76
2019-05-23T20:39:00.632Z,101355.60
2019-05-23T20:41:30.338Z,101347.67
2019-05-23T20:43:59.620Z,101350.08
2019-05-23T20:46:28.996Z,101355.16
2019-05-23T20:49:00.175Z,101348.73
2019-05-23T20:51:29.629Z,101351.56
2019-05-23T20:53:58.963Z,101354.00
2019-05-23T20:56:28.282Z,101353.81
2019-05-23T20:58:57.688Z,101346.28
2019-05-23T21:01:36.148Z,101351.14
2019-05-23T21:04:06.163Z,101354.70
2019-05-23T21:06:35.551Z,101370.97
2019-05-23T21:09:06.679Z,101360.61
2019-05-23T21:11:36.048Z,101358.54
2019-05-23T21:14:05.496Z,101353.45
2019-05-23T21:16:34.864Z,101363.41
2019-05-23T21:19:04.279Z,101363.22
2019-05-23T21:21:33.785Z,101358.87
2019-05-23T21:24:03.185Z,101364.22
2019-05-23T21:26:32.568Z,101368.53
2019-05-23T21:29:03.012Z,101363.72
2019-05-23T21:31:32.456Z,101360.95
2019-05-23T21:34:01.763Z,101363.84
2019-05-23T21:36:31.147Z,101359.95
2019-05-23T21:39:00.517Z,101354.78
2019-05-23T21:41:29.903Z,101359.80
2019-05-23T21:43:59.294Z,101355.06
2019-05-23T21:46:28.802Z,101361.29
2019-05-23T21:48:58.160Z,101362.64
2019-05-23T21:51:27.462Z,101362.02
2019-05-23T21:53:56.775Z,101359.67
2019-05-23T21:56:26.046Z,101359.67
2019-05-23T21:58:55.340Z,101353.44
2019-05-23T22:01:43.044Z,101357.67
2019-05-23T22:04:34.028Z,101366.76
2019-05-23T22:07:05.254Z,101367.94
2019-05-23T22:09:35.678Z,101359.75
2019-05-23T22:12:06.200Z,101357.59
2019-05-23T22:14:36.410Z,101356.75
2019-05-23T22:17:05.844Z,101359.33
2019-05-23T22:19:35.368Z,101360.29
2019-05-23T22:22:05.078Z,101353.28
2019-05-23T22:24:34.489Z,101358.25
2019-05-23T22:27:04.113Z,101347.67
2019-05-23T22:29:33.435Z,101353.22
2019-05-23T22:32:02.843Z,101358.11
2019-05-23T22:35:00.332Z,101360.45
2019-05-23T22:37:31.162Z,101363.64
2019-05-23T22:40:00.633Z,101368.80
2019-05-23T22:42:30.776Z,101362.99
2019-05-23T22:45:00.086Z,101369.95
2019-05-23T22:47:29.928Z,101367.45
2019-05-23T22:49:59.343Z,101370.38
2019-05-23T22:52:28.714Z,101362.15
2019-05-23T22:54:58.047Z,101364.64
2019-05-23T22:57:27.352Z,101363.92
2019-05-23T22:59:56.727Z,101370.11
2019-05-23T23:02:26.119Z,101373.77
2019-05-23T23:04:55.558Z,101384.11
2019-05-23T23:07:25.171Z,101386.27
2019-05-23T23:09:54.527Z,101383.56
2019-05-23T23:12:23.911Z,101385.68
2019-05-23T23:14:53.293Z,101381.06
2019-05-23T23:17:23.351Z,101378.72
2019-05-23T23:19:52.688Z,101372.28
2019-05-23T23:22:21.984Z,101377.28
2019-05-23T23:24:51.290Z,101371.70
2019-05-23T23:27:20.789Z,101371.47
2019-05-23T23:29:50.282Z,101365.73
2019-05-23T23:32:19.663Z,101373.47
2019-05-23T23:34:49.049Z,101369.08
2019-05-23T23:37:18.415Z,101367.73
2019-05-23T23:39:48.871Z,101369.69
2019-05-23T23:42:18.276Z,101365.59
2019-05-23T23:44:46.608Z,101368.91
2019-05-23T23:47:33.854Z,101372.25
2019-05-23T23:50:20.564Z,101359.75
2019-05-23T23:53:07.357Z,101362.37
2019-05-23T23:55:54.616Z,101359.15
2019-05-23T23:58:24.989Z,101361.48
